createdAt,value
2022-10-14T00:00:45.722Z,71.63
2022-10-14T00:03:12.685Z,71.28
2022-10-14T00:05:43.041Z,71.72
2022-10-14T00:08:10.955Z,71.85
2022-10-14T00:10:39.606Z,71.71
2022-10-14T00:13:07.457Z,71.87
2022-10-14T00:15:39.946Z,71.71
2022-10-14T00:18:08.323Z,72.10
2022-10-14T00:20:36.189Z,71.80
2022-10-14T00:23:03.273Z,72.22
2022-10-14T00:25:30.879Z,72.17
2022-10-14T00:28:03.896Z,72.07
2022-10-14T00:30:30.835Z,72.03
2022-10-14T00:32:57.774Z,72.16
2022-10-14T00:35:24.759Z,72.28
2022-10-14T00:37:51.598Z,72.23
2022-10-14T00:40:18.755Z,72.47
2022-10-14T00:42:45.743Z,72.52
2022-10-14T00:45:16.402Z,72.37
2022-10-14T00:47:44.783Z,72.31
2022-10-14T00:50:13.266Z,72.31
2022-10-14T00:52:40.291Z,72.16
2022-10-14T00:55:16.659Z,71.99
2022-10-14T00:57:44.408Z,72.38
2022-10-14T01:00:18.771Z,72.17
2022-10-14T01:02:47.034Z,72.37
2022-10-14T01:05:16.565Z,72.53
2022-10-14T01:08:04.590Z,72.66
2022-10-14T01:10:56.457Z,72.95
2022-10-14T01:13:31.775Z,73.01
2022-10-14T01:16:25.966Z,73.24
2022-10-14T01:19:22.822Z,73.24
2022-10-14T01:21:56.374Z,72.79
2022-10-14T01:24:54.738Z,73.29
2022-10-14T01:27:27.898Z,72.99
2022-10-14T01:30:10.016Z,72.99
2022-10-14T01:32:39.627Z,72.92
2022-10-14T01:35:13.816Z,73.11
2022-10-14T01:37:49.285Z,72.86
2022-10-14T01:40:25.782Z,72.43
2022-10-14T01:42:54.210Z,71.66
2022-10-14T01:45:23.918Z,72.75
2022-10-14T01:47:53.684Z,72.64
2022-10-14T01:50:25.358Z,72.43
2022-10-14T01:53:15.883Z,72.38
2022-10-14T01:55:46.906Z,72.26
2022-10-14T01:58:17.296Z,72.37
2022-10-14T02:00:44.415Z,72.53
2022-10-14T02:03:13.565Z,72.29
2022-10-14T02:05:43.548Z,72.43
2022-10-14T02:08:17.156Z,72.77
2022-10-14T02:10:53.888Z,72.76
2022-10-14T02:13:35.635Z,72.71
2022-10-14T02:16:25.631Z,73.15
2022-10-14T02:18:55.392Z,72.87
2022-10-14T02:21:34.756Z,73.04
2022-10-14T02:24:24.988Z,73.00
2022-10-14T02:26:55.071Z,73.17
2022-10-14T02:29:24.061Z,73.13
2022-10-14T02:31:52.177Z,73.10
2022-10-14T02:34:23.310Z,72.96
2022-10-14T02:36:51.508Z,73.18
2022-10-14T02:39:39.711Z,73.18
2022-10-14T02:42:06.917Z,73.15
2022-10-14T02:44:33.908Z,73.39
2022-10-14T02:47:01.175Z,73.60
2022-10-14T02:49:28.198Z,73.69
2022-10-14T02:51:55.373Z,73.42
2022-10-14T02:54:22.364Z,73.60
2022-10-14T02:56:49.306Z,72.94
2022-10-14T02:59:16.380Z,73.68
2022-10-14T03:01:43.360Z,73.79
2022-10-14T03:04:10.392Z,73.89
2022-10-14T03:06:37.354Z,74.57
2022-10-14T03:09:04.239Z,74.39
2022-10-14T03:11:31.211Z,73.37
2022-10-14T03:13:58.282Z,74.10
2022-10-14T03:16:25.227Z,74.61
2022-10-14T03:18:52.170Z,74.30
2022-10-14T03:21:19.090Z,74.21
2022-10-14T03:23:46.092Z,74.48
2022-10-14T03:26:14.208Z,73.78
2022-10-14T03:28:41.488Z,74.40
2022-10-14T03:31:08.619Z,74.34
2022-10-14T03:33:35.603Z,74.62
2022-10-14T03:36:02.606Z,74.44
2022-10-14T03:38:29.592Z,73.90
2022-10-14T03:40:56.821Z,74.30
2022-10-14T03:43:23.811Z,74.17
2022-10-14T03:45:50.935Z,74.70
2022-10-14T03:48:18.015Z,74.78
2022-10-14T03:50:44.979Z,74.03
2022-10-14T03:53:11.975Z,74.68
2022-10-14T03:55:39.143Z,74.88
2022-10-14T03:58:06.386Z,74.80
2022-10-14T04:00:35.907Z,74.74
2022-10-14T04:03:03.021Z,74.80
2022-10-14T04:05:34.136Z,74.33
2022-10-14T04:08:01.864Z,74.85
2022-10-14T04:10:29.082Z,75.29
2022-10-14T04:12:56.640Z,75.41
2022-10-14T04:15:24.671Z,75.35
2022-10-14T04:17:52.230Z,74.81
2022-10-14T04:20:23.758Z,75.43
2022-10-14T04:22:50.722Z,75.58
2022-10-14T04:25:17.779Z,75.19
2022-10-14T04:27:44.709Z,75.50
2022-10-14T04:30:12.379Z,75.20
2022-10-14T04:32:39.332Z,75.64
2022-10-14T04:35:06.754Z,76.02
2022-10-14T04:37:33.706Z,75.55
2022-10-14T04:40:00.677Z,75.61
2022-10-14T04:42:27.708Z,75.94
2022-10-14T04:44:54.950Z,75.76
2022-10-14T04:47:21.963Z,75.41
2022-10-14T04:49:48.911Z,75.56
2022-10-14T04:52:16.213Z,75.97
2022-10-14T04:54:43.172Z,75.49
2022-10-14T04:57:10.397Z,75.89
2022-10-14T04:59:42.278Z,75.66
2022-10-14T05:02:09.341Z,76.09
2022-10-14T05:04:36.319Z,76.18
2022-10-14T05:07:03.479Z,76.23
2022-10-14T05:09:30.525Z,76.17
2022-10-14T05:11:58.756Z,75.88
2022-10-14T05:14:26.261Z,75.90
2022-10-14T05:16:53.246Z,75.26
2022-10-14T05:19:20.175Z,75.34
2022-10-14T05:21:47.249Z,75.81
2022-10-14T05:24:14.226Z,75.87
2022-10-14T05:26:41.197Z,76.08
2022-10-14T05:29:10.338Z,76.52
2022-10-14T05:31:39.338Z,75.83
2022-10-14T05:34:06.369Z,76.10
2022-10-14T05:36:33.302Z,75.85
2022-10-14T05:39:01.576Z,75.50
2022-10-14T05:41:28.716Z,75.51
2022-10-14T05:43:55.843Z,75.72
2022-10-14T05:46:22.785Z,75.33
2022-10-14T05:48:53.829Z,75.41
2022-10-14T05:51:21.579Z,75.31
2022-10-14T05:53:49.233Z,75.34
2022-10-14T05:56:16.441Z,75.85
2022-10-14T05:58:43.868Z,75.37
2022-10-14T06:01:11.839Z,75.48
2022-10-14T06:03:39.050Z,75.01
2022-10-14T06:06:06.596Z,75.75
2022-10-14T06:08:33.529Z,75.61
2022-10-14T06:11:03.841Z,75.73
2022-10-14T06:13:31.053Z,75.58
2022-10-14T06:15:58.140Z,75.65
2022-10-14T06:18:27.229Z,75.68
2022-10-14T06:20:55.725Z,75.67
2022-10-14T06:23:22.880Z,75.33
2022-10-14T06:25:50.379Z,75.03
2022-10-14T06:28:17.571Z,74.81
2022-10-14T06:30:50.941Z,75.86
2022-10-14T06:33:18.043Z,75.85
2022-10-14T06:35:45.369Z,75.26
2022-10-14T06:38:12.862Z,75.70
2022-10-14T06:40:40.167Z,74.39
2022-10-14T06:43:07.513Z,74.32
2022-10-14T06:45:34.577Z,74.29
2022-10-14T06:48:02.393Z,74.54
2022-10-14T06:50:29.388Z,74.67
2022-10-14T06:52:56.368Z,74.66
2022-10-14T06:55:23.520Z,74.38
2022-10-14T06:57:50.461Z,74.16
2022-10-14T07:00:17.933Z,73.73
2022-10-14T07:02:45.367Z,73.32
2022-10-14T07:05:12.690Z,72.76
2022-10-14T07:07:39.899Z,72.90
2022-10-14T07:10:07.380Z,72.75
2022-10-14T07:12:34.579Z,72.05
2022-10-14T07:15:01.790Z,72.76
2022-10-14T07:17:28.758Z,71.85
2022-10-14T07:19:55.741Z,72.06
2022-10-14T07:22:23.025Z,71.94
2022-10-14T07:24:50.266Z,71.60
2022-10-14T07:27:17.338Z,72.27
2022-10-14T07:29:44.297Z,72.39
2022-10-14T07:32:11.204Z,72.15
2022-10-14T07:34:38.449Z,72.23
2022-10-14T07:37:05.542Z,72.78
2022-10-14T07:39:32.492Z,73.06
2022-10-14T07:41:59.486Z,72.87
2022-10-14T07:44:27.504Z,72.17
2022-10-14T07:46:54.899Z,71.98
2022-10-14T07:49:23.072Z,71.40
2022-10-14T07:51:50.561Z,72.04
2022-10-14T07:54:23.901Z,71.75
2022-10-14T07:56:51.262Z,72.06
2022-10-14T07:59:20.457Z,71.92
2022-10-14T08:01:48.484Z,71.16
2022-10-14T08:04:15.821Z,70.73
2022-10-14T08:06:42.767Z,70.70
2022-10-14T08:09:11.491Z,70.88
2022-10-14T08:11:39.103Z,70.00
2022-10-14T08:14:06.330Z,69.66
2022-10-14T08:16:35.492Z,69.34
2022-10-14T08:19:12.581Z,69.02
2022-10-14T08:21:42.299Z,68.90
2022-10-14T08:24:10.204Z,68.84
2022-10-14T08:26:39.537Z,69.18
2022-10-14T08:29:10.932Z,69.12
2022-10-14T08:31:40.757Z,68.84
2022-10-14T08:34:07.736Z,68.67
2022-10-14T08:36:34.717Z,68.18
2022-10-14T08:39:04.705Z,67.15
2022-10-14T08:41:44.770Z,66.70
2022-10-14T08:44:29.152Z,66.16
2022-10-14T08:47:02.473Z,65.83
2022-10-14T08:49:38.581Z,65.45
2022-10-14T08:52:11.376Z,65.46
2022-10-14T08:54:45.367Z,65.08
2022-10-14T08:57:17.379Z,65.37
2022-10-14T08:59:45.210Z,64.21
2022-10-14T09:02:24.748Z,64.08
2022-10-14T09:04:51.773Z,64.19
2022-10-14T09:07:21.174Z,64.43
2022-10-14T09:09:52.051Z,64.22
2022-10-14T09:12:27.519Z,63.70
2022-10-14T09:15:06.822Z,63.02
2022-10-14T09:17:40.532Z,63.27
2022-10-14T09:20:16.834Z,63.24
2022-10-14T09:22:44.029Z,63.22
2022-10-14T09:25:16.096Z,63.15
2022-10-14T09:27:43.390Z,62.21
2022-10-14T09:30:16.342Z,61.76
2022-10-14T09:32:54.926Z,62.41
2022-10-14T09:35:35.944Z,61.57
2022-10-14T09:38:02.912Z,61.26
2022-10-14T09:40:33.978Z,60.75
2022-10-14T09:43:10.140Z,60.64
2022-10-14T09:46:01.991Z,60.67
2022-10-14T09:48:44.749Z,61.90
2022-10-14T09:51:19.778Z,62.34
2022-10-14T09:53:52.260Z,62.35
2022-10-14T09:56:42.935Z,61.91
2022-10-14T09:59:20.023Z,61.30
2022-10-14T10:02:00.765Z,60.74
2022-10-14T10:04:47.895Z,61.09
2022-10-14T10:07:34.193Z,60.36
2022-10-14T10:10:05.416Z,60.69
2022-10-14T10:12:34.862Z,60.29
2022-10-14T10:15:05.624Z,61.07
2022-10-14T10:17:35.921Z,60.54
2022-10-14T10:20:33.881Z,59.75
2022-10-14T10:23:25.603Z,59.51
2022-10-14T10:25:53.087Z,60.89
2022-10-14T10:28:32.042Z,59.74
2022-10-14T10:31:36.543Z,59.85
2022-10-14T10:34:52.919Z,60.17
2022-10-14T10:37:25.775Z,60.28
2022-10-14T10:40:05.200Z,60.15
2022-10-14T10:42:43.489Z,59.92
2022-10-14T10:45:52.573Z,59.92
2022-10-14T10:48:21.430Z,59.96
2022-10-14T10:51:02.779Z,59.74
2022-10-14T10:53:43.835Z,60.96
2022-10-14T10:56:33.944Z,60.27
2022-10-14T11:02:12.563Z,60.51
2022-10-14T11:04:46.769Z,60.86
2022-10-14T11:08:06.782Z,60.13
2022-10-14T11:11:29.829Z,59.65
2022-10-14T11:14:20.603Z,59.41
2022-10-14T11:17:01.753Z,60.71
2022-10-14T11:19:55.250Z,60.20
2022-10-14T11:22:48.171Z,61.13
2022-10-14T11:25:25.677Z,60.84
2022-10-14T11:28:11.178Z,60.68
2022-10-14T11:30:52.324Z,60.91
2022-10-14T11:33:25.065Z,59.98
2022-10-14T11:36:13.674Z,60.47
2022-10-14T11:39:00.054Z,61.06
2022-10-14T11:41:46.378Z,61.48
2022-10-14T11:47:06.154Z,60.55
2022-10-14T11:49:43.194Z,60.13
2022-10-14T11:52:18.340Z,60.46
2022-10-14T11:54:49.541Z,60.54
2022-10-14T11:57:25.846Z,60.54
2022-10-14T12:00:01.709Z,61.17
2022-10-14T12:02:47.958Z,61.13
2022-10-14T12:05:24.451Z,61.01
2022-10-14T12:08:00.318Z,60.72
2022-10-14T12:10:51.475Z,60.30
2022-10-14T12:13:32.641Z,61.17
2022-10-14T12:16:01.563Z,61.31
2022-10-14T12:18:31.441Z,60.52
2022-10-14T12:21:10.808Z,60.81
2022-10-14T12:23:44.078Z,60.34
2022-10-14T12:26:26.385Z,60.09
2022-10-14T12:28:54.990Z,60.62
2022-10-14T12:31:35.971Z,60.85
2022-10-14T12:34:11.919Z,60.75
2022-10-14T12:36:40.903Z,60.86
2022-10-14T12:39:20.071Z,61.06
2022-10-14T12:42:06.395Z,60.67
2022-10-14T12:44:49.770Z,60.49
2022-10-14T12:47:36.236Z,61.29
2022-10-14T12:50:13.961Z,60.92
2022-10-14T12:52:45.258Z,62.02
2022-10-14T12:55:21.824Z,61.81
2022-10-14T12:57:58.506Z,62.37
2022-10-14T13:00:25.452Z,62.26
2022-10-14T13:02:56.595Z,62.38
2022-10-14T13:05:32.915Z,62.04
2022-10-14T13:08:15.101Z,62.11
2022-10-14T13:10:46.824Z,61.88
2022-10-14T13:13:39.084Z,61.76
2022-10-14T13:16:28.648Z,61.55
2022-10-14T13:19:03.119Z,61.38
2022-10-14T13:21:49.930Z,62.07
2022-10-14T13:24:42.104Z,61.76
2022-10-14T13:27:12.955Z,61.57
2022-10-14T13:30:00.113Z,62.12
2022-10-14T13:32:45.572Z,61.83
2022-10-14T13:35:31.446Z,62.78
2022-10-14T13:38:08.311Z,62.95
2022-10-14T13:40:38.989Z,62.34
2022-10-14T13:43:20.150Z,62.50
2022-10-14T13:45:48.860Z,62.99
2022-10-14T13:48:30.369Z,62.51
2022-10-14T13:51:35.114Z,62.40
2022-10-14T13:54:25.014Z,62.48
2022-10-14T14:00:37.303Z,62.49
2022-10-14T14:02:38.871Z,62.48
2022-10-14T14:05:06.290Z,62.35
2022-10-14T14:10:25.574Z,62.47
2022-10-14T14:12:52.990Z,62.25
2022-10-14T14:15:30.241Z,62.15
2022-10-14T14:17:57.418Z,62.84
2022-10-14T14:20:28.675Z,63.09
2022-10-14T14:22:58.859Z,62.89
2022-10-14T14:25:50.657Z,63.04
2022-10-14T14:28:19.275Z,62.77
2022-10-14T14:30:54.979Z,63.07
2022-10-14T14:33:31.653Z,63.11
2022-10-14T14:36:04.509Z,63.32
2022-10-14T14:38:37.299Z,63.71
2022-10-14T14:41:17.311Z,64.38
2022-10-14T14:43:53.302Z,64.21
2022-10-14T14:46:40.305Z,64.28
2022-10-14T14:49:09.247Z,64.50
2022-10-14T14:51:39.618Z,64.73
2022-10-14T14:54:07.419Z,65.23
2022-10-14T14:56:44.361Z,65.40
2022-10-14T14:59:26.424Z,65.15
2022-10-14T15:01:54.404Z,65.56
2022-10-14T15:04:25.618Z,65.38
2022-10-14T15:07:06.536Z,65.96
2022-10-14T15:09:39.281Z,66.39
2022-10-14T15:12:15.950Z,66.20
2022-10-14T15:14:50.629Z,66.29
2022-10-14T15:17:38.178Z,66.82
2022-10-14T15:20:05.283Z,66.81
2022-10-14T15:22:36.809Z,66.92
2022-10-14T15:25:09.086Z,67.40
2022-10-14T15:27:35.942Z,67.30
2022-10-14T15:30:18.256Z,67.62
2022-10-14T15:32:45.337Z,67.50
2022-10-14T15:35:17.572Z,67.74
2022-10-14T15:37:44.769Z,67.64
2022-10-14T15:40:22.763Z,68.01
2022-10-14T15:42:50.979Z,67.83
2022-10-14T15:45:19.351Z,68.05
2022-10-14T15:47:52.362Z,67.86
2022-10-14T15:50:23.059Z,68.25
2022-10-14T15:52:51.133Z,68.51
2022-10-14T15:55:20.798Z,68.56
2022-10-14T15:57:50.183Z,69.28
2022-10-14T16:00:19.371Z,68.82
2022-10-14T16:02:53.982Z,68.87
2022-10-14T16:05:22.238Z,69.07
2022-10-14T16:07:49.745Z,69.63
2022-10-14T16:10:20.290Z,69.20
2022-10-14T16:12:47.903Z,69.29
2022-10-14T16:15:41.460Z,69.39
2022-10-14T16:18:11.679Z,69.03
2022-10-14T16:20:38.977Z,69.33
2022-10-14T16:23:06.377Z,69.39
2022-10-14T16:25:45.183Z,69.35
2022-10-14T16:28:13.804Z,69.30
2022-10-14T16:30:54.748Z,69.51
2022-10-14T16:33:22.499Z,68.85
2022-10-14T16:35:54.889Z,70.24
2022-10-14T16:38:22.980Z,70.60
2022-10-14T16:40:58.048Z,69.24
2022-10-14T16:43:25.974Z,69.71
2022-10-14T16:45:53.140Z,70.06
2022-10-14T16:48:20.166Z,69.70
2022-10-14T16:50:51.068Z,70.26
2022-10-14T16:53:36.508Z,70.10
2022-10-14T16:56:04.268Z,70.24
2022-10-14T16:58:31.158Z,70.22
2022-10-14T17:00:58.081Z,70.45
2022-10-14T17:03:25.067Z,70.57
2022-10-14T17:06:01.109Z,70.76
2022-10-14T17:08:28.482Z,70.54
2022-10-14T17:10:58.378Z,70.79
2022-10-14T17:13:25.475Z,70.90
2022-10-14T17:16:04.824Z,70.73
2022-10-14T17:18:34.857Z,70.65
2022-10-14T17:21:14.799Z,71.35
2022-10-14T17:23:44.047Z,71.33
2022-10-14T17:26:18.598Z,71.29
2022-10-14T17:28:47.331Z,71.84
2022-10-14T17:31:17.143Z,71.47
2022-10-14T17:33:44.338Z,71.73
2022-10-14T17:36:21.192Z,71.78
2022-10-14T17:38:51.060Z,72.06
2022-10-14T17:41:18.841Z,72.13
2022-10-14T17:43:49.754Z,71.91
2022-10-14T17:46:20.942Z,72.16
2022-10-14T17:48:56.651Z,72.36
2022-10-14T17:51:25.652Z,72.75
2022-10-14T17:53:58.531Z,72.82
2022-10-14T17:56:27.525Z,72.61
2022-10-14T17:58:55.779Z,72.99
2022-10-14T18:01:36.902Z,72.84
2022-10-14T18:04:04.601Z,72.96
2022-10-14T18:06:33.709Z,72.87
2022-10-14T18:09:12.545Z,73.78
2022-10-14T18:14:30.619Z,73.88
2022-10-14T18:16:59.613Z,73.61
2022-10-14T18:19:27.528Z,73.84
2022-10-14T18:21:54.511Z,73.76
2022-10-14T18:24:21.547Z,73.77
2022-10-14T18:26:52.649Z,73.15
2022-10-14T18:29:19.834Z,73.90
2022-10-14T18:31:49.628Z,73.46
2022-10-14T18:34:16.823Z,73.53
2022-10-14T18:36:44.098Z,73.68
2022-10-14T18:39:12.547Z,73.92
2022-10-14T18:41:39.931Z,73.90
2022-10-14T18:44:07.343Z,73.80
2022-10-14T18:46:37.447Z,74.61
2022-10-14T18:49:06.324Z,73.98
2022-10-14T18:51:35.476Z,73.99
2022-10-14T18:54:06.397Z,74.33
2022-10-14T18:56:38.535Z,73.97
2022-10-14T18:59:14.150Z,74.04
2022-10-14T19:01:42.418Z,74.67
2022-10-14T19:04:13.325Z,74.28
2022-10-14T19:06:40.110Z,74.44
2022-10-14T19:09:07.085Z,74.23
2022-10-14T19:11:35.682Z,74.32
2022-10-14T19:14:04.645Z,74.27
2022-10-14T19:16:34.090Z,74.06
2022-10-14T19:19:18.741Z,74.28
2022-10-14T19:21:48.746Z,74.42
2022-10-14T19:24:16.358Z,74.00
2022-10-14T19:26:45.957Z,74.34
2022-10-14T19:29:15.647Z,74.13
2022-10-14T19:31:44.363Z,73.96
2022-10-14T19:34:14.088Z,74.06
2022-10-14T19:36:42.409Z,74.46
2022-10-14T19:39:13.766Z,74.39
2022-10-14T19:41:44.704Z,74.10
2022-10-14T19:44:13.185Z,74.61
2022-10-14T19:46:40.676Z,74.35
2022-10-14T19:49:07.736Z,74.50
2022-10-14T19:51:35.655Z,75.27
2022-10-14T19:54:03.502Z,74.64
2022-10-14T19:56:31.321Z,74.86
2022-10-14T19:58:59.380Z,75.06
2022-10-14T20:01:29.236Z,74.93
2022-10-14T20:03:56.975Z,75.20
2022-10-14T20:06:24.504Z,75.71
2022-10-14T20:08:51.721Z,75.92
2022-10-14T20:11:20.160Z,75.67
2022-10-14T20:13:47.318Z,75.54
2022-10-14T20:16:14.445Z,77.02
2022-10-14T20:18:42.063Z,76.07
2022-10-14T20:21:12.023Z,75.86
2022-10-14T20:23:39.458Z,76.36
2022-10-14T20:26:18.566Z,75.94
2022-10-14T20:28:46.829Z,75.83
2022-10-14T20:31:16.769Z,76.00
2022-10-14T20:33:44.211Z,76.10
2022-10-14T20:36:17.561Z,76.45
2022-10-14T20:38:45.536Z,75.93
2022-10-14T20:41:14.431Z,76.37
2022-10-14T20:43:42.658Z,75.75
2022-10-14T20:46:10.151Z,76.26
2022-10-14T20:48:40.456Z,75.82
2022-10-14T20:51:10.306Z,75.97
2022-10-14T20:53:37.739Z,76.67
2022-10-14T20:56:07.196Z,76.85
2022-10-14T20:58:34.239Z,77.01
2022-10-14T21:01:12.956Z,77.03
2022-10-14T21:03:41.105Z,77.38
2022-10-14T21:06:10.534Z,77.23
2022-10-14T21:08:38.025Z,77.28
2022-10-14T21:11:10.542Z,77.51
2022-10-14T21:13:41.944Z,76.44
2022-10-14T21:16:30.122Z,77.44
2022-10-14T21:19:06.031Z,77.80
2022-10-14T21:21:39.326Z,77.64
2022-10-14T21:24:06.985Z,77.14
2022-10-14T21:26:34.130Z,77.70
2022-10-14T21:29:04.801Z,78.27
2022-10-14T21:31:32.005Z,77.84
2022-10-14T21:34:05.389Z,77.79
2022-10-14T21:36:33.817Z,78.18
2022-10-14T21:39:04.279Z,77.86
2022-10-14T21:41:31.687Z,77.33
2022-10-14T21:43:59.394Z,78.12
2022-10-14T21:46:27.567Z,78.43
2022-10-14T21:48:57.446Z,77.97
2022-10-14T21:51:27.534Z,78.32
2022-10-14T21:53:59.232Z,78.37
2022-10-14T21:56:27.209Z,78.43
2022-10-14T21:58:54.396Z,78.05
2022-10-14T22:01:27.500Z,78.14
2022-10-14T22:04:00.132Z,78.39
2022-10-14T22:06:28.137Z,78.01
2022-10-14T22:08:57.693Z,78.13
2022-10-14T22:11:35.329Z,78.12
2022-10-14T22:14:03.969Z,78.66
2022-10-14T22:16:31.611Z,78.82
2022-10-14T22:19:00.493Z,78.78
2022-10-14T22:21:29.925Z,78.44
2022-10-14T22:23:58.584Z,78.37
2022-10-14T22:26:27.017Z,78.92
2022-10-14T22:29:02.474Z,78.96
2022-10-14T22:31:33.283Z,79.10
2022-10-14T22:34:02.182Z,78.59
2022-10-14T22:36:29.896Z,78.87
2022-10-14T22:38:58.674Z,78.94
2022-10-14T22:41:29.791Z,78.98
2022-10-14T22:44:00.571Z,79.11
2022-10-14T22:46:30.406Z,78.94
2022-10-14T22:49:01.123Z,79.03
2022-10-14T22:51:31.119Z,79.08
2022-10-14T22:53:58.473Z,78.98
2022-10-14T22:56:27.697Z,78.45
2022-10-14T22:58:55.439Z,78.61
2022-10-14T23:01:23.614Z,78.77
2022-10-14T23:03:50.811Z,79.44
2022-10-14T23:06:17.868Z,78.78
2022-10-14T23:08:45.266Z,78.89
2022-10-14T23:11:18.240Z,79.10
2022-10-14T23:13:46.133Z,78.71
2022-10-14T23:16:15.503Z,78.76
2022-10-14T23:18:43.598Z,78.69
2022-10-14T23:21:10.650Z,78.84
2022-10-14T23:23:38.014Z,78.91
2022-10-14T23:26:05.646Z,78.83
2022-10-14T23:28:32.607Z,78.75
2022-10-14T23:30:59.552Z,78.39
2022-10-14T23:33:26.485Z,78.87
2022-10-14T23:35:53.569Z,78.82
2022-10-14T23:38:20.544Z,79.03
2022-10-14T23:40:47.530Z,78.99
2022-10-14T23:43:14.579Z,78.88
2022-10-14T23:45:41.616Z,79.15
2022-10-14T23:48:09.163Z,79.11
2022-10-14T23:50:36.075Z,79.34
2022-10-14T23:53:03.166Z,79.69
2022-10-14T23:55:30.879Z,79.16
2022-10-14T23:57:58.005Z,79.01
